Home   Weather   Kostrzyn nad Odrą   Past weeks
Flag for Poland

Past Weather in Kostrzyn nad Odrą, Poland — May 2017

Currently: 33 °F. Overcast. (Weather station: Gorzow Wlkp, Poland). See more current weather

May 2017 Weather in Kostrzyn nad Odrą — Graph

°F

High & Low Weather Summary for May 2017

 TemperatureHumidityPressure
High85 °F (May 28, 4:00 pm)98% (May 30, 3:00 pm)30.45 "Hg (May 30, 3:00 pm)
Low34 °F (May 9, 5:00 am)25% (May 28, 4:00 pm)29.67 "Hg (May 11, 7:00 pm)
Average57 °F68%30.04 "Hg
* Reported May 1 12:00 am — May 31 11:00 pm, Kostrzyn nad Odrą. Weather by CustomWeather, © 2022

Note: Actual official high and low records may vary slightly from our data, if they occured in-between our weather recording intervals... More about our weather records

Kostrzyn nad Odrą Weather History for May 1, 2017

Scroll right to see more
 ConditionsComfort  
Time TempWeatherWind HumidityBarometerVisibility
12:00 am
Mon, May 1
41 °FClear.3 mph75%30.14 "Hg25 mi
1:00 am39 °FClear.3 mph78%30.14 "Hg25 mi
2:00 am39 °FClear.3 mph79%30.13 "Hg25 mi
3:00 am38 °FClear.5 mph82%30.12 "Hg25 mi
4:00 am37 °FClear.5 mph84%30.12 "Hg19 mi
5:00 am36 °FClear.5 mph85%30.11 "Hg12 mi
6:00 am36 °FSunny.6 mph88%30.10 "Hg9 mi
7:00 am39 °FSunny.6 mph84%30.10 "Hg9 mi
8:00 am42 °FSunny.5 mph79%30.09 "Hg9 mi
9:00 am48 °FPassing clouds.6 mph71%30.09 "Hg12 mi
10:00 am52 °FPassing clouds.6 mph60%30.08 "Hg12 mi
11:00 am55 °FPassing clouds.7 mph57%30.08 "Hg16 mi
12:00 pm57 °FScattered clouds.7 mph49%30.07 "Hg16 mi
1:00 pm58 °FPartly sunny.6 mph45%30.06 "Hg16 mi
2:00 pm58 °FPartly sunny.6 mph48%30.05 "Hg19 mi
3:00 pm58 °FOvercast.6 mph44%30.04 "Hg19 mi
4:00 pm59 °FOvercast.6 mph42%30.03 "Hg19 mi
5:00 pm58 °FOvercast.7 mph46%30.03 "Hg25 mi
6:00 pm56 °FOvercast.5 mph49%30.05 "Hg28 mi
7:00 pm56 °FOvercast.6 mph48%30.05 "Hg28 mi
8:00 pm55 °FOvercast.5 mph49%30.07 "Hg25 mi
9:00 pm54 °FOvercast.5 mph52%30.08 "Hg25 mi
10:00 pm53 °FOvercast.5 mph53%30.09 "Hg25 mi
11:00 pm53 °FOvercast.5 mph53%30.09 "Hg25 mi
Weather by CustomWeather, © 2022

See weather overview